createdAt,value
2022-08-26T00:01:56.924Z,7.40
2022-08-26T00:04:26.079Z,5.93
2022-08-26T00:06:55.875Z,5.70
2022-08-26T00:09:25.201Z,6.40
2022-08-26T00:11:53.975Z,5.67
2022-08-26T00:14:24.209Z,6.23
2022-08-26T00:16:55.619Z,6.20
2022-08-26T00:19:23.005Z,8.10
2022-08-26T00:21:50.439Z,7.30
2022-08-26T00:24:20.871Z,5.40
2022-08-26T00:26:49.633Z,10.13
2022-08-26T00:29:17.631Z,5.13
2022-08-26T00:31:45.004Z,6.00
2022-08-26T00:34:13.142Z,7.00
2022-08-26T00:36:41.055Z,8.83
2022-08-26T00:39:08.757Z,7.83
2022-08-26T00:41:39.833Z,5.50
2022-08-26T00:44:10.355Z,9.63
2022-08-26T00:46:47.177Z,5.57
2022-08-26T00:49:38.539Z,5.53
2022-08-26T00:52:13.155Z,7.10
2022-08-26T00:54:55.630Z,5.07
2022-08-26T00:57:23.813Z,6.00
2022-08-26T00:59:57.031Z,7.93
2022-08-26T01:02:24.681Z,5.50
2022-08-26T01:04:56.529Z,6.20
2022-08-26T01:07:26.384Z,6.47
2022-08-26T01:09:55.563Z,9.00
2022-08-26T01:12:24.370Z,5.97
2022-08-26T01:14:52.513Z,5.73
2022-08-26T01:17:19.638Z,11.93
2022-08-26T01:19:57.996Z,8.37
2022-08-26T01:22:40.838Z,6.80
2022-08-26T01:25:08.743Z,10.10
2022-08-26T01:27:36.062Z,8.57
2022-08-26T01:30:05.990Z,6.97
2022-08-26T01:32:34.108Z,9.13
2022-08-26T01:35:02.163Z,6.93
2022-08-26T01:37:36.266Z,6.10
2022-08-26T01:40:08.556Z,5.63
2022-08-26T01:42:35.729Z,7.53
2022-08-26T01:45:14.763Z,6.83
2022-08-26T01:47:43.087Z,6.73
2022-08-26T01:50:18.034Z,8.53
2022-08-26T01:52:58.119Z,6.90
2022-08-26T01:55:32.033Z,6.27
2022-08-26T01:58:02.932Z,6.60
2022-08-26T02:00:30.053Z,7.53
2022-08-26T02:03:17.235Z,5.80
2022-08-26T02:05:57.619Z,14.33
2022-08-26T02:08:54.636Z,6.10
2022-08-26T02:11:21.748Z,7.30
2022-08-26T02:13:59.816Z,6.30
2022-08-26T02:16:31.285Z,7.03
2022-08-26T02:19:00.607Z,6.60
2022-08-26T02:21:28.971Z,6.70
2022-08-26T02:24:17.482Z,7.43
2022-08-26T02:26:46.060Z,6.40
2022-08-26T02:29:36.198Z,6.73
2022-08-26T02:32:09.571Z,8.50
2022-08-26T02:34:37.452Z,10.13
2022-08-26T02:37:09.345Z,6.87
2022-08-26T02:39:41.744Z,10.80
2022-08-26T02:42:09.155Z,7.47
2022-08-26T02:44:36.814Z,10.67
2022-08-26T02:47:04.703Z,8.30
2022-08-26T02:49:32.341Z,8.13
2022-08-26T02:52:01.905Z,6.63
2022-08-26T02:54:29.271Z,8.80
2022-08-26T02:56:56.342Z,7.40
2022-08-26T02:59:24.685Z,6.10
2022-08-26T03:01:52.498Z,6.10
2022-08-26T03:04:25.873Z,7.70
2022-08-26T03:06:53.882Z,11.00
2022-08-26T03:09:24.065Z,6.27
2022-08-26T03:11:52.420Z,12.63
2022-08-26T03:14:19.519Z,7.63
2022-08-26T03:16:48.350Z,7.70
2022-08-26T03:19:15.600Z,6.93
2022-08-26T03:21:47.305Z,9.23
2022-08-26T03:24:15.602Z,7.50
2022-08-26T03:26:51.992Z,7.40
2022-08-26T03:29:40.623Z,8.23
2022-08-26T03:32:08.863Z,7.30
2022-08-26T03:34:36.494Z,7.37
2022-08-26T03:37:03.886Z,7.60
2022-08-26T03:39:31.757Z,7.20
2022-08-26T03:41:59.973Z,7.40
2022-08-26T03:44:27.260Z,8.53
2022-08-26T03:46:54.679Z,7.73
2022-08-26T03:49:23.138Z,7.67
2022-08-26T03:51:50.247Z,8.77
2022-08-26T03:54:17.937Z,7.80
2022-08-26T03:56:46.629Z,10.03
2022-08-26T03:59:13.893Z,7.63
2022-08-26T04:01:41.332Z,8.20
2022-08-26T04:04:08.378Z,10.77
2022-08-26T04:06:39.469Z,8.07
2022-08-26T04:09:15.680Z,8.87
2022-08-26T04:11:45.047Z,9.13
2022-08-26T04:14:20.102Z,7.33
2022-08-26T04:16:47.858Z,10.47
2022-08-26T04:19:16.719Z,8.00
2022-08-26T04:21:45.622Z,7.90
2022-08-26T04:24:15.644Z,8.47
2022-08-26T04:26:43.894Z,7.77
2022-08-26T04:29:23.976Z,8.17
2022-08-26T04:31:55.310Z,8.93
2022-08-26T04:34:28.980Z,10.60
2022-08-26T04:36:57.812Z,11.37
2022-08-26T04:39:25.302Z,9.40
2022-08-26T04:41:54.996Z,9.17
2022-08-26T04:44:25.535Z,10.80
2022-08-26T04:46:53.733Z,12.00
2022-08-26T04:49:22.731Z,9.50
2022-08-26T04:51:49.821Z,10.27
2022-08-26T04:54:18.331Z,12.57
2022-08-26T04:56:49.413Z,9.27
2022-08-26T04:59:17.991Z,7.77
2022-08-26T05:01:49.606Z,10.60
2022-08-26T05:04:19.425Z,10.43
2022-08-26T05:06:49.540Z,8.20
2022-08-26T05:09:18.455Z,7.43
2022-08-26T05:11:48.489Z,8.73
2022-08-26T05:14:23.243Z,8.67
2022-08-26T05:16:51.562Z,9.97
2022-08-26T05:19:19.252Z,16.10
2022-08-26T05:21:48.386Z,14.90
2022-08-26T05:24:16.579Z,10.07
2022-08-26T05:26:44.816Z,13.43
2022-08-26T05:29:12.991Z,10.53
2022-08-26T05:31:40.465Z,10.37
2022-08-26T05:34:10.739Z,9.37
2022-08-26T05:36:39.194Z,12.83
2022-08-26T05:39:07.451Z,8.37
2022-08-26T05:41:38.635Z,10.20
2022-08-26T05:44:12.793Z,8.20
2022-08-26T05:46:42.490Z,9.33
2022-08-26T05:49:13.041Z,10.93
2022-08-26T05:51:44.960Z,9.30
2022-08-26T05:54:21.265Z,11.10
2022-08-26T05:56:51.301Z,12.00
2022-08-26T05:59:21.272Z,8.37
2022-08-26T06:01:54.635Z,10.30
2022-08-26T06:04:23.297Z,9.73
2022-08-26T06:06:54.040Z,15.50
2022-08-26T06:09:21.292Z,9.30
2022-08-26T06:11:48.547Z,11.60
2022-08-26T06:14:15.811Z,15.03
2022-08-26T06:16:46.570Z,13.70
2022-08-26T06:19:15.530Z,12.50
2022-08-26T06:21:54.157Z,11.67
2022-08-26T06:24:41.317Z,7.33
2022-08-26T06:27:13.424Z,9.03
2022-08-26T06:29:40.407Z,12.60
2022-08-26T06:32:08.678Z,9.77
2022-08-26T06:34:35.866Z,9.17
2022-08-26T06:37:03.320Z,13.83
2022-08-26T06:39:31.929Z,8.73
2022-08-26T06:42:03.146Z,7.33
2022-08-26T06:44:33.166Z,8.30
2022-08-26T06:47:00.271Z,8.33
2022-08-26T06:49:27.811Z,8.27
2022-08-26T06:52:00.910Z,7.30
2022-08-26T06:54:31.547Z,10.00
2022-08-26T06:57:01.123Z,8.07
2022-08-26T06:59:28.348Z,13.83
2022-08-26T07:01:55.567Z,10.70
2022-08-26T07:04:24.547Z,10.63
2022-08-26T07:06:53.725Z,7.60
2022-08-26T07:09:28.073Z,13.60
2022-08-26T07:11:58.713Z,8.13
2022-08-26T07:14:26.182Z,9.10
2022-08-26T07:16:54.524Z,16.73
2022-08-26T07:19:30.087Z,14.43
2022-08-26T07:22:05.538Z,9.90
2022-08-26T07:24:35.840Z,6.80
2022-08-26T07:27:08.641Z,10.37
2022-08-26T07:29:37.936Z,6.17
2022-08-26T07:32:05.615Z,6.80
2022-08-26T07:34:33.497Z,6.53
2022-08-26T07:37:01.240Z,10.67
2022-08-26T07:39:31.544Z,8.03
2022-08-26T07:42:01.768Z,8.87
2022-08-26T07:44:36.124Z,5.70
2022-08-26T07:47:03.216Z,7.60
2022-08-26T07:49:38.296Z,8.33
2022-08-26T07:52:06.520Z,6.53
2022-08-26T07:54:33.710Z,8.67
2022-08-26T07:57:01.534Z,5.70
2022-08-26T07:59:34.039Z,7.73
2022-08-26T08:02:01.436Z,9.70
2022-08-26T08:04:28.552Z,7.90
2022-08-26T08:06:56.000Z,7.23
2022-08-26T08:09:23.909Z,7.23
2022-08-26T08:11:53.051Z,10.00
2022-08-26T08:14:22.128Z,6.43
2022-08-26T08:16:51.105Z,8.17
2022-08-26T08:19:23.780Z,8.93
2022-08-26T08:21:50.997Z,7.60
2022-08-26T08:24:18.491Z,7.63
2022-08-26T08:26:46.458Z,16.13
2022-08-26T08:29:14.023Z,6.80
2022-08-26T08:31:58.233Z,8.90
2022-08-26T08:34:28.654Z,6.40
2022-08-26T08:36:57.257Z,7.90
2022-08-26T08:39:26.313Z,6.47
2022-08-26T08:45:39.533Z,7.03
2022-08-26T08:48:27.339Z,8.33
2022-08-26T08:51:22.342Z,8.30
2022-08-26T08:53:54.599Z,9.57
2022-08-26T08:56:38.232Z,6.83
2022-08-26T08:59:25.266Z,6.80
2022-08-26T09:01:53.979Z,5.97
2022-08-26T09:04:36.066Z,9.03
2022-08-26T09:07:07.212Z,8.17
2022-08-26T09:09:42.144Z,9.23
2022-08-26T09:12:20.631Z,9.03
2022-08-26T09:15:17.365Z,6.40
2022-08-26T09:18:16.625Z,6.70
2022-08-26T09:21:04.558Z,7.10
2022-08-26T09:23:36.326Z,8.43
2022-08-26T09:26:31.049Z,8.10
2022-08-26T09:29:08.785Z,9.10
2022-08-26T09:31:39.157Z,10.27
2022-08-26T09:34:27.143Z,11.70
2022-08-26T09:36:59.618Z,6.57
2022-08-26T09:39:37.486Z,8.90
2022-08-26T09:42:22.314Z,7.20
2022-08-26T09:45:06.533Z,7.07
2022-08-26T09:47:38.212Z,10.60
2022-08-26T09:50:10.048Z,10.57
2022-08-26T09:52:40.310Z,9.60
2022-08-26T09:55:23.618Z,8.80
2022-08-26T09:57:55.634Z,7.10
2022-08-26T10:00:38.722Z,8.80
2022-08-26T10:03:24.774Z,7.70
2022-08-26T10:06:01.051Z,12.13
2022-08-26T10:08:32.057Z,7.67
2022-08-26T10:11:04.472Z,6.13
2022-08-26T10:13:31.297Z,8.07
2022-08-26T10:16:28.366Z,6.20
2022-08-26T10:19:06.443Z,11.77
2022-08-26T10:21:59.493Z,7.20
2022-08-26T10:24:37.739Z,9.07
2022-08-26T10:27:27.092Z,10.27
2022-08-26T10:30:05.120Z,6.40
2022-08-26T10:32:42.829Z,7.60
2022-08-26T10:35:14.387Z,7.40
2022-08-26T10:37:50.210Z,12.37
2022-08-26T10:40:51.410Z,8.70
2022-08-26T10:43:31.239Z,8.30
2022-08-26T10:46:06.894Z,7.83
2022-08-26T10:48:59.973Z,5.93
2022-08-26T10:51:38.480Z,6.97
2022-08-26T10:54:27.887Z,6.90
2022-08-26T10:57:45.490Z,6.20
2022-08-26T11:01:10.127Z,13.87
2022-08-26T11:03:49.516Z,12.13
2022-08-26T11:06:19.832Z,10.83
2022-08-26T11:09:10.072Z,7.53
2022-08-26T11:11:39.938Z,16.40
2022-08-26T11:14:09.917Z,7.43
2022-08-26T11:16:49.145Z,6.63
2022-08-26T11:19:59.327Z,6.63
2022-08-26T11:22:31.188Z,5.87
2022-08-26T11:24:58.023Z,6.23
2022-08-26T11:27:36.779Z,6.90
2022-08-26T11:30:38.280Z,8.13
2022-08-26T11:33:08.219Z,6.73
2022-08-26T11:35:37.288Z,8.70
2022-08-26T11:38:27.719Z,6.57
2022-08-26T11:41:09.597Z,4.50
2022-08-26T11:43:39.781Z,10.67
2022-08-26T11:46:11.124Z,5.03
2022-08-26T11:48:42.962Z,7.77
2022-08-26T11:51:23.450Z,9.23
2022-08-26T11:53:51.812Z,11.87
2022-08-26T11:56:33.145Z,6.80
2022-08-26T11:59:03.862Z,6.90
2022-08-26T12:01:41.729Z,7.03
2022-08-26T12:04:18.091Z,7.50
2022-08-26T12:06:51.191Z,5.93
2022-08-26T12:09:31.578Z,7.00
2022-08-26T12:12:18.439Z,8.27
2022-08-26T12:14:46.291Z,9.10
2022-08-26T12:17:27.246Z,7.33
2022-08-26T12:19:54.190Z,4.93
2022-08-26T12:22:31.579Z,5.77
2022-08-26T12:25:08.452Z,9.50
2022-08-26T12:27:44.419Z,9.50
2022-08-26T12:30:15.783Z,5.40
2022-08-26T12:33:22.168Z,7.30
2022-08-26T12:35:56.212Z,5.87
2022-08-26T12:38:25.699Z,4.53
2022-08-26T12:40:53.647Z,5.60
2022-08-26T12:43:45.360Z,6.63
2022-08-26T12:46:18.145Z,5.57
2022-08-26T12:48:49.244Z,4.33
2022-08-26T12:51:35.363Z,5.80
2022-08-26T12:54:06.648Z,6.30
2022-08-26T12:56:39.785Z,6.03
2022-08-26T12:59:19.828Z,5.20
2022-08-26T13:01:49.535Z,9.10
2022-08-26T13:04:37.997Z,5.80
2022-08-26T13:07:26.717Z,7.37
2022-08-26T13:09:57.131Z,7.40
2022-08-26T13:12:40.740Z,8.53
2022-08-26T13:15:08.568Z,6.67
2022-08-26T13:17:36.023Z,6.13
2022-08-26T13:20:04.556Z,4.80
2022-08-26T13:22:32.092Z,7.67
2022-08-26T13:24:59.137Z,9.13
2022-08-26T13:27:27.569Z,6.23
2022-08-26T13:29:55.450Z,4.20
2022-08-26T13:32:27.234Z,6.37
2022-08-26T13:34:56.923Z,7.20
2022-08-26T13:37:35.270Z,6.13
2022-08-26T13:40:07.570Z,7.77
2022-08-26T13:42:34.794Z,4.70
2022-08-26T13:45:02.901Z,14.10
2022-08-26T13:47:30.666Z,9.83
2022-08-26T13:49:57.743Z,5.00
2022-08-26T13:52:30.949Z,5.27
2022-08-26T13:55:01.980Z,8.33
2022-08-26T13:57:30.266Z,6.03
2022-08-26T13:59:59.131Z,16.10
2022-08-26T14:02:27.631Z,8.47
2022-08-26T14:04:55.306Z,6.73
2022-08-26T14:07:22.979Z,10.13
2022-08-26T14:09:49.967Z,6.53
2022-08-26T14:12:17.291Z,8.00
2022-08-26T14:14:44.245Z,5.97
2022-08-26T14:17:20.643Z,5.20
2022-08-26T14:19:50.255Z,8.53
2022-08-26T14:22:20.371Z,9.40
2022-08-26T14:24:48.450Z,5.10
2022-08-26T14:27:15.483Z,8.63
2022-08-26T14:29:42.678Z,5.00
2022-08-26T14:32:21.372Z,8.97
2022-08-26T14:34:49.658Z,13.60
2022-08-26T14:37:17.759Z,17.03
2022-08-26T14:39:46.132Z,9.33
2022-08-26T14:42:16.729Z,10.47
2022-08-26T14:44:46.388Z,7.30
2022-08-26T14:47:13.466Z,7.07
2022-08-26T14:49:40.504Z,5.00
2022-08-26T14:52:07.410Z,4.77
2022-08-26T14:54:34.376Z,7.97
2022-08-26T14:57:05.548Z,7.40
2022-08-26T14:59:36.652Z,9.33
2022-08-26T15:02:05.989Z,7.53
2022-08-26T15:04:33.238Z,7.83
2022-08-26T15:07:01.120Z,6.43
2022-08-26T15:09:30.142Z,8.57
2022-08-26T15:11:57.307Z,6.17
2022-08-26T15:14:26.074Z,5.03
2022-08-26T15:16:56.963Z,9.37
2022-08-26T15:19:27.781Z,5.70
2022-08-26T15:21:54.794Z,8.10
2022-08-26T15:24:25.910Z,4.90
2022-08-26T15:26:53.671Z,4.93
2022-08-26T15:29:22.752Z,4.40
2022-08-26T15:31:50.428Z,6.10
2022-08-26T15:34:18.290Z,4.60
2022-08-26T15:36:47.194Z,9.00
2022-08-26T15:39:16.638Z,7.30
2022-08-26T15:41:44.027Z,7.73
2022-08-26T15:44:12.811Z,8.03
2022-08-26T15:46:40.792Z,4.60
2022-08-26T15:49:08.004Z,5.73
2022-08-26T15:51:45.915Z,5.60
2022-08-26T15:54:14.537Z,5.03
2022-08-26T15:56:41.573Z,6.83
2022-08-26T15:59:11.579Z,6.00
2022-08-26T16:01:39.546Z,6.70
2022-08-26T16:04:07.346Z,5.93
2022-08-26T16:06:38.125Z,7.97
2022-08-26T16:09:06.689Z,5.10
2022-08-26T16:11:35.971Z,9.83
2022-08-26T16:14:04.862Z,5.73
2022-08-26T16:16:32.278Z,7.40
2022-08-26T16:19:00.546Z,6.60
2022-08-26T16:21:30.674Z,10.00
2022-08-26T16:23:58.626Z,7.50
2022-08-26T16:26:32.388Z,7.90
2022-08-26T16:29:02.356Z,9.40
2022-08-26T16:31:29.455Z,8.03
2022-08-26T16:33:56.538Z,9.97
2022-08-26T16:36:23.537Z,8.93
2022-08-26T16:38:55.256Z,8.63
2022-08-26T16:41:25.964Z,9.30
2022-08-26T16:43:53.568Z,9.73
2022-08-26T16:46:23.680Z,9.93
2022-08-26T16:48:51.023Z,8.50
2022-08-26T16:51:22.990Z,9.10
2022-08-26T16:53:51.508Z,11.37
2022-08-26T16:56:34.077Z,9.60
2022-08-26T16:59:06.843Z,12.40
2022-08-26T17:01:34.003Z,9.70
2022-08-26T17:04:01.234Z,9.50
2022-08-26T17:06:28.505Z,12.40
2022-08-26T17:08:55.539Z,10.73
2022-08-26T17:11:22.542Z,11.13
2022-08-26T17:13:49.505Z,12.53
2022-08-26T17:16:16.728Z,11.50
2022-08-26T17:18:44.122Z,12.30
2022-08-26T17:21:13.500Z,9.83
2022-08-26T17:23:42.546Z,14.63
2022-08-26T17:26:12.286Z,12.00
2022-08-26T17:28:39.813Z,15.30
2022-08-26T17:31:09.359Z,9.40
2022-08-26T17:33:36.416Z,10.53
2022-08-26T17:36:07.733Z,14.90
2022-08-26T17:38:36.795Z,9.57
2022-08-26T17:41:09.039Z,11.90
2022-08-26T17:43:36.910Z,8.93
2022-08-26T17:46:07.714Z,7.77
2022-08-26T17:48:36.431Z,8.63
2022-08-26T17:51:09.626Z,10.10
2022-08-26T17:53:37.458Z,12.10
2022-08-26T17:56:15.635Z,9.73
2022-08-26T17:58:47.960Z,10.53
2022-08-26T18:01:20.845Z,7.53
2022-08-26T18:03:49.011Z,7.27
2022-08-26T18:06:16.355Z,7.37
2022-08-26T18:08:43.987Z,6.43
2022-08-26T18:11:17.610Z,9.10
2022-08-26T18:13:47.560Z,10.87
2022-08-26T18:16:17.250Z,6.70
2022-08-26T18:18:44.655Z,8.27
2022-08-26T18:21:18.044Z,8.37
2022-08-26T18:23:47.025Z,6.37
2022-08-26T18:26:23.907Z,9.13
2022-08-26T18:28:51.488Z,10.40
2022-08-26T18:31:18.619Z,7.27
2022-08-26T18:33:46.743Z,8.10
2022-08-26T18:36:28.418Z,5.80
2022-08-26T18:38:57.402Z,7.30
2022-08-26T18:41:29.425Z,6.80
2022-08-26T18:43:57.451Z,6.03
2022-08-26T18:46:26.931Z,9.40
2022-08-26T18:48:55.907Z,7.87
2022-08-26T18:51:29.627Z,7.93
2022-08-26T18:53:57.339Z,8.87
2022-08-26T18:56:24.775Z,12.93
2022-08-26T18:58:51.816Z,8.17
2022-08-26T19:01:23.253Z,9.40
2022-08-26T19:03:52.510Z,11.80
2022-08-26T19:06:23.285Z,9.23
2022-08-26T19:08:50.773Z,11.17
2022-08-26T19:11:32.154Z,8.70
2022-08-26T19:14:01.458Z,7.33
2022-08-26T19:16:30.449Z,8.00
2022-08-26T19:18:58.885Z,8.77
2022-08-26T19:21:26.192Z,9.30
2022-08-26T19:23:58.306Z,9.00
2022-08-26T19:26:27.038Z,10.20
2022-08-26T19:28:54.353Z,9.93
2022-08-26T19:31:22.338Z,9.33
2022-08-26T19:33:49.456Z,10.33
2022-08-26T19:36:22.468Z,10.27
2022-08-26T19:38:50.515Z,7.87
2022-08-26T19:41:25.469Z,14.07
2022-08-26T19:44:10.994Z,10.67
2022-08-26T19:49:10.759Z,9.23
2022-08-26T19:51:37.792Z,16.40
2022-08-26T19:54:05.170Z,8.57
2022-08-26T19:56:32.170Z,12.23
2022-08-26T19:58:59.426Z,8.03
2022-08-26T20:01:26.706Z,13.03
2022-08-26T20:03:53.730Z,8.47
2022-08-26T20:06:21.316Z,10.83
2022-08-26T20:08:50.772Z,11.57
2022-08-26T20:11:19.246Z,10.80
2022-08-26T20:13:48.238Z,8.67
2022-08-26T20:16:16.300Z,12.30
2022-08-26T20:19:03.644Z,7.93
2022-08-26T20:21:35.918Z,8.90
2022-08-26T20:24:11.029Z,13.03
2022-08-26T20:26:40.975Z,9.80
2022-08-26T20:29:10.320Z,15.03
2022-08-26T20:31:38.115Z,8.97
2022-08-26T20:34:06.213Z,10.87
2022-08-26T20:36:34.057Z,10.10
2022-08-26T20:39:01.300Z,15.10
2022-08-26T20:41:28.588Z,13.63
2022-08-26T20:43:56.610Z,14.20
2022-08-26T20:46:25.293Z,11.93
2022-08-26T20:48:53.897Z,12.70
2022-08-26T20:51:23.514Z,13.40
2022-08-26T20:53:51.183Z,11.53
2022-08-26T20:56:26.263Z,10.90
2022-08-26T20:58:58.688Z,11.87
2022-08-26T21:01:33.663Z,13.80
2022-08-26T21:04:04.713Z,10.33
2022-08-26T21:06:35.267Z,13.90
2022-08-26T21:09:06.824Z,13.77
2022-08-26T21:11:35.978Z,17.60
2022-08-26T21:14:07.081Z,14.20
2022-08-26T21:16:46.488Z,14.13
2022-08-26T21:19:17.985Z,13.73
2022-08-26T21:21:47.098Z,12.03
2022-08-26T21:24:14.447Z,17.07
2022-08-26T21:26:42.342Z,14.00
2022-08-26T21:29:09.921Z,18.07
2022-08-26T21:31:42.266Z,15.50
2022-08-26T21:34:12.191Z,16.97
2022-08-26T21:36:39.420Z,16.27
2022-08-26T21:39:11.258Z,19.80
2022-08-26T21:41:40.131Z,18.23
2022-08-26T21:44:07.640Z,14.97
2022-08-26T21:46:37.145Z,16.90
2022-08-26T21:49:08.011Z,16.30
2022-08-26T21:51:43.512Z,18.07
2022-08-26T21:54:12.701Z,19.80
2022-08-26T21:56:46.027Z,16.77
2022-08-26T21:59:17.523Z,28.90
2022-08-26T22:01:46.083Z,41.27
2022-08-26T22:04:13.270Z,27.47
2022-08-26T22:06:45.776Z,37.43
2022-08-26T22:09:15.850Z,48.40
2022-08-26T22:11:43.488Z,37.60
2022-08-26T22:14:11.158Z,47.03
2022-08-26T22:16:38.626Z,50.93
2022-08-26T22:19:05.990Z,48.60
2022-08-26T22:21:34.010Z,47.63
2022-08-26T22:24:01.697Z,50.80
2022-08-26T22:26:32.264Z,48.17
2022-08-26T22:29:01.294Z,44.13
2022-08-26T22:31:38.474Z,43.90
2022-08-26T22:34:12.727Z,39.03
2022-08-26T22:36:44.948Z,47.67
2022-08-26T22:39:19.475Z,37.97
2022-08-26T22:41:48.577Z,38.83
2022-08-26T22:44:17.561Z,38.83
2022-08-26T22:46:45.107Z,40.80
2022-08-26T22:49:16.489Z,49.50
2022-08-26T22:51:45.506Z,39.80
2022-08-26T22:54:13.716Z,44.77
2022-08-26T22:56:41.289Z,43.23
2022-08-26T22:59:11.002Z,39.50
2022-08-26T23:01:43.982Z,40.50
2022-08-26T23:04:12.066Z,36.60
2022-08-26T23:06:43.240Z,35.10
2022-08-26T23:09:17.835Z,43.83
2022-08-26T23:11:46.720Z,43.13
2022-08-26T23:14:13.982Z,45.10
2022-08-26T23:16:41.799Z,41.77
2022-08-26T23:19:12.082Z,45.07
2022-08-26T23:21:39.838Z,47.63
2022-08-26T23:24:08.558Z,51.60
2022-08-26T23:26:36.460Z,45.37
2022-08-26T23:29:06.268Z,40.50
2022-08-26T23:31:33.915Z,36.47
2022-08-26T23:34:19.175Z,41.40
2022-08-26T23:36:46.993Z,39.50
2022-08-26T23:39:14.922Z,35.60
2022-08-26T23:41:42.481Z,37.10
2022-08-26T23:44:09.563Z,34.20
2022-08-26T23:46:36.606Z,39.57
2022-08-26T23:49:04.180Z,40.83
2022-08-26T23:51:50.108Z,38.00
2022-08-26T23:54:17.375Z,40.83
2022-08-26T23:56:44.809Z,46.77
2022-08-26T23:59:12.180Z,41.80
